< < Back
Terminal Aerodrome Forecast


Current Version              Previous Versions:   1  2  3  4  5  6  7  8  9  

Terminal Aerodrome Forecast

431
FTUS42 KILM 041122
TAFILM
TAF
KILM 041122Z 0412/0512 VRB05KT P6SM SKC
     FM041500 17010KT P6SM SKC
     FM050000 VRB05KT P6SM SKC=



Latest METAR

593
SAUS70 KWBC 050200 RRA
MTRILM
METAR KILM 050153Z 16003KT 10SM CLR 18/13 A3034 RMK AO2 SLP273
T01830133


USA.gov is the U.S. government's official web portal to all federal, state and local government web resources and services.